sensor_id;sensor_type;location;lat;lon;timestamp;pressure;altitude;pressure_sealevel;temperature;humidity
43436;BME280;36399;51.444;-2.018;2023-12-04T00:01:30;99238.78;;;6.70;100.00
43436;BME280;36399;51.444;-2.018;2023-12-04T00:03:59;99234.44;;;6.73;100.00
43436;BME280;36399;51.444;-2.018;2023-12-04T00:06:25;99225.75;;;6.71;100.00
43436;BME280;36399;51.444;-2.018;2023-12-04T00:11:24;99221.38;;;6.69;100.00
43436;BME280;36399;51.444;-2.018;2023-12-04T00:16:23;99215.31;;;6.70;100.00
43436;BME280;36399;51.444;-2.018;2023-12-04T00:18:53;99206.63;;;6.72;100.00
43436;BME280;36399;51.444;-2.018;2023-12-04T00:21:19;99198.78;;;6.69;100.00
43436;BME280;36399;51.444;-2.018;2023-12-04T00:23:45;99191.78;;;6.65;100.00
43436;BME280;36399;51.444;-2.018;2023-12-04T00:26:15;99194.44;;;6.71;100.00
43436;BME280;36399;51.444;-2.018;2023-12-04T00:28:41;99180.50;;;6.66;100.00
43436;BME280;36399;51.444;-2.018;2023-12-04T00:31:08;99182.25;;;6.67;100.00
43436;BME280;36399;51.444;-2.018;2023-12-04T00:33:36;99164.84;;;6.63;100.00
43436;BME280;36399;51.444;-2.018;2023-12-04T00:36:03;99164.81;;;6.60;100.00
43436;BME280;36399;51.444;-2.018;2023-12-04T00:38:32;99156.13;;;6.62;100.00
43436;BME280;36399;51.444;-2.018;2023-12-04T00:40:58;99150.88;;;6.56;100.00
43436;BME280;36399;51.444;-2.018;2023-12-04T00:43:24;99150.88;;;6.58;100.00
43436;BME280;36399;51.444;-2.018;2023-12-04T00:54:12;99123.91;;;6.51;100.00
43436;BME280;36399;51.444;-2.018;2023-12-04T00:56:41;99121.28;;;6.48;100.00
43436;BME280;36399;51.444;-2.018;2023-12-04T01:21:04;99058.59;;;6.31;100.00
43436;BME280;36399;51.444;-2.018;2023-12-04T01:23:31;99056.84;;;6.29;100.00
43436;BME280;36399;51.444;-2.018;2023-12-04T01:48:10;98994.22;;;6.21;100.00
43436;BME280;36399;51.444;-2.018;2023-12-04T01:50:40;98982.94;;;6.22;100.00
43436;BME280;36399;51.444;-2.018;2023-12-04T01:53:14;98971.69;;;6.25;100.00
43436;BME280;36399;51.444;-2.018;2023-12-04T01:55:41;98968.22;;;6.24;100.00
43436;BME280;36399;51.444;-2.018;2023-12-04T01:58:07;98971.69;;;6.26;100.00
43436;BME280;36399;51.444;-2.018;2023-12-04T02:00:37;98962.97;;;6.23;100.00
43436;BME280;36399;51.444;-2.018;2023-12-04T02:08:33;98966.47;;;6.26;100.00
43436;BME280;36399;51.444;-2.018;2023-12-04T02:11:02;98949.97;;;6.24;100.00
43436;BME280;36399;51.444;-2.018;2023-12-04T02:16:14;98956.00;;;6.23;100.00
43436;BME280;36399;51.444;-2.018;2023-12-04T02:18:44;98944.72;;;6.23;100.00
43436;BME280;36399;51.444;-2.018;2023-12-04T02:26:34;98949.97;;;6.26;100.00
43436;BME280;36399;51.444;-2.018;2023-12-04T02:34:53;98943.91;;;6.25;100.00
43436;BME280;36399;51.444;-2.018;2023-12-04T02:42:32;98936.09;;;6.27;100.00
43436;BME280;36399;51.444;-2.018;2023-12-04T02:52:52;98921.34;;;6.33;100.00
43436;BME280;36399;51.444;-2.018;2023-12-04T03:08:33;98896.19;;;6.39;100.00
43436;BME280;36399;51.444;-2.018;2023-12-04T03:19:26;98883.16;;;6.45;100.00
43436;BME280;36399;51.444;-2.018;2023-12-04T03:52:52;98819.75;;;6.55;100.00
43436;BME280;36399;51.444;-2.018;2023-12-04T04:47:03;98774.59;;;6.65;100.00
43436;BME280;36399;51.444;-2.018;2023-12-04T06:44:51;98718.97;;;6.92;100.00
43436;BME280;36399;51.444;-2.018;2023-12-04T06:55:44;98720.72;;;6.90;100.00
43436;BME280;36399;51.444;-2.018;2023-12-04T06:58:10;98718.97;;;6.89;100.00
43436;BME280;36399;51.444;-2.018;2023-12-04T07:00:36;98712.88;;;7.01;100.00
43436;BME280;36399;51.444;-2.018;2023-12-04T07:33:50;98723.28;;;7.25;100.00
43436;BME280;36399;51.444;-2.018;2023-12-04T07:36:16;98714.59;;;7.21;100.00
43436;BME280;36399;51.444;-2.018;2023-12-04T07:38:42;98718.94;;;7.24;100.00
43436;BME280;36399;51.444;-2.018;2023-12-04T07:41:08;98718.06;;;7.16;100.00
43436;BME280;36399;51.444;-2.018;2023-12-04T07:43:34;98725.03;;;7.11;100.00
43436;BME280;36399;51.444;-2.018;2023-12-04T07:48:36;98726.78;;;7.09;100.00
43436;BME280;36399;51.444;-2.018;2023-12-04T07:59:50;98738.94;;;7.16;100.00
43436;BME280;36399;51.444;-2.018;2023-12-04T08:02:16;98737.19;;;7.21;100.00
43436;BME280;36399;51.444;-2.018;2023-12-04T08:04:42;98739.81;;;7.16;100.00
43436;BME280;36399;51.444;-2.018;2023-12-04T08:07:08;98732.84;;;7.18;100.00
43436;BME280;36399;51.444;-2.018;2023-12-04T08:09:35;98739.81;;;7.21;100.00
43436;BME280;36399;51.444;-2.018;2023-12-04T08:12:01;98734.59;;;7.18;100.00
43436;BME280;36399;51.444;-2.018;2023-12-04T08:14:27;98742.41;;;7.24;100.00
43436;BME280;36399;51.444;-2.018;2023-12-04T08:16:53;98739.81;;;7.22;100.00
43436;BME280;36399;51.444;-2.018;2023-12-04T08:19:19;98741.56;;;7.20;100.00
43436;BME280;36399;51.444;-2.018;2023-12-04T08:21:45;98738.94;;;7.22;100.00
43436;BME280;36399;51.444;-2.018;2023-12-04T08:24:12;98740.66;;;7.41;100.00
43436;BME280;36399;51.444;-2.018;2023-12-04T08:26:38;98738.06;;;7.37;100.00
43436;BME280;36399;51.444;-2.018;2023-12-04T08:29:04;98740.69;;;7.35;100.00
43436;BME280;36399;51.444;-2.018;2023-12-04T08:31:30;98742.41;;;7.39;100.00
43436;BME280;36399;51.444;-2.018;2023-12-04T08:33:56;98741.56;;;7.37;100.00
43436;BME280;36399;51.444;-2.018;2023-12-04T08:36:22;98731.94;;;7.54;100.00
43436;BME280;36399;51.444;-2.018;2023-12-04T08:38:48;98737.16;;;7.54;100.00
43436;BME280;36399;51.444;-2.018;2023-12-04T08:41:16;98730.16;;;7.59;100.00
43436;BME280;36399;51.444;-2.018;2023-12-04T08:43:42;98730.16;;;7.59;100.00
43436;BME280;36399;51.444;-2.018;2023-12-04T08:46:12;98730.16;;;7.59;100.00
43436;BME280;36399;51.444;-2.018;2023-12-04T08:48:40;98723.19;;;7.62;100.00
43436;BME280;36399;51.444;-2.018;2023-12-04T08:51:06;98728.41;;;7.68;100.00
43436;BME280;36399;51.444;-2.018;2023-12-04T08:53:34;98725.75;;;7.74;100.00
43436;BME280;36399;51.444;-2.018;2023-12-04T08:56:00;98724.88;;;7.84;100.00
43436;BME280;36399;51.444;-2.018;2023-12-04T08:58:26;98724.88;;;7.78;100.00
43436;BME280;36399;51.444;-2.018;2023-12-04T09:00:52;98723.16;;;7.83;100.00
43436;BME280;36399;51.444;-2.018;2023-12-04T09:03:18;98720.53;;;7.74;100.00
43436;BME280;36399;51.444;-2.018;2023-12-04T09:05:46;98724.88;;;7.78;100.00
43436;BME280;36399;51.444;-2.018;2023-12-04T09:08:15;98722.28;;;7.81;100.00
43436;BME280;36399;51.444;-2.018;2023-12-04T09:10:41;98723.13;;;7.86;100.00
43436;BME280;36399;51.444;-2.018;2023-12-04T09:13:07;98722.28;;;7.73;100.00
43436;BME280;36399;51.444;-2.018;2023-12-04T09:15:32;98715.28;;;7.84;100.00
43436;BME280;36399;51.444;-2.018;2023-12-04T09:17:58;98717.91;;;7.83;100.00
43436;BME280;36399;51.444;-2.018;2023-12-04T09:20:25;98721.41;;;7.85;100.00
43436;BME280;36399;51.444;-2.018;2023-12-04T09:22:51;98717.03;;;7.79;100.00
43436;BME280;36399;51.444;-2.018;2023-12-04T09:25:17;98719.66;;;7.84;100.00
43436;BME280;36399;51.444;-2.018;2023-12-04T09:27:43;98716.16;;;7.88;100.00
43436;BME280;36399;51.444;-2.018;2023-12-04T09:30:09;98720.53;;;7.78;100.00
43436;BME280;36399;51.444;-2.018;2023-12-04T09:32:36;98721.38;;;7.88;100.00
43436;BME280;36399;51.444;-2.018;2023-12-04T09:35:02;98716.13;;;7.94;100.00
43436;BME280;36399;51.444;-2.018;2023-12-04T09:37:28;98715.25;;;7.92;100.00
43436;BME280;36399;51.444;-2.018;2023-12-04T09:39:54;98723.13;;;7.89;100.00
43436;BME280;36399;51.444;-2.018;2023-12-04T09:42:20;98717.00;;;7.90;100.00
43436;BME280;36399;51.444;-2.018;2023-12-04T09:44:47;98719.63;;;7.90;100.00
43436;BME280;36399;51.444;-2.018;2023-12-04T09:47:17;98716.97;;;7.98;100.00
43436;BME280;36399;51.444;-2.018;2023-12-04T09:49:45;98716.09;;;8.00;100.00
43436;BME280;36399;51.444;-2.018;2023-12-04T09:52:11;98713.50;;;7.96;100.00
43436;BME280;36399;51.444;-2.018;2023-12-04T09:54:37;98727.34;;;8.10;100.00
43436;BME280;36399;51.444;-2.018;2023-12-04T09:57:04;98731.75;;;8.06;100.00
43436;BME280;36399;51.444;-2.018;2023-12-04T10:22:42;98734.22;;;8.28;100.00
43436;BME280;36399;51.444;-2.018;2023-12-04T10:27:53;98727.25;;;8.28;100.00
43436;BME280;36399;51.444;-2.018;2023-12-04T10:30:28;98726.38;;;8.31;100.00
43436;BME280;36399;51.444;-2.018;2023-12-04T10:32:57;98717.66;;;8.29;100.00
43436;BME280;36399;51.444;-2.018;2023-12-04T10:35:31;98719.44;;;8.23;100.00
43436;BME280;36399;51.444;-2.018;2023-12-04T10:37:59;98721.13;;;8.31;100.00
43436;BME280;36399;51.444;-2.018;2023-12-04T10:40:29;98718.50;;;8.43;100.00
43436;BME280;36399;51.444;-2.018;2023-12-04T10:45:35;98714.94;;;8.54;100.00
43436;BME280;36399;51.444;-2.018;2023-12-04T10:48:03;98723.56;;;8.64;100.00
43436;BME280;36399;51.444;-2.018;2023-12-04T10:50:34;98719.22;;;8.65;100.00
43436;BME280;36399;51.444;-2.018;2023-12-04T10:53:04;98710.47;;;8.69;100.00
43436;BME280;36399;51.444;-2.018;2023-12-04T10:55:31;98707.88;;;8.64;100.00
43436;BME280;36399;51.444;-2.018;2023-12-04T10:58:00;98708.78;;;8.60;100.00
43436;BME280;36399;51.444;-2.018;2023-12-04T11:00:28;98705.34;;;8.55;100.00
43436;BME280;36399;51.444;-2.018;2023-12-04T11:02:55;98708.75;;;8.66;100.00
43436;BME280;36399;51.444;-2.018;2023-12-04T11:05:23;98713.97;;;8.68;100.00
43436;BME280;36399;51.444;-2.018;2023-12-04T11:08:01;98706.09;;;8.69;100.00
43436;BME280;36399;51.444;-2.018;2023-12-04T11:10:29;98703.47;;;8.72;100.00
43436;BME280;36399;51.444;-2.018;2023-12-04T11:13:19;98707.03;;;8.62;100.00
43436;BME280;36399;51.444;-2.018;2023-12-04T11:15:48;98702.59;;;8.72;100.00
43436;BME280;36399;51.444;-2.018;2023-12-04T11:18:16;98700.88;;;8.69;100.00
43436;BME280;36399;51.444;-2.018;2023-12-04T11:20:56;98698.94;;;8.93;100.00
43436;BME280;36399;51.444;-2.018;2023-12-04T11:23:23;98698.97;;;8.90;100.00
43436;BME280;36399;51.444;-2.018;2023-12-04T11:25:49;98701.50;;;9.00;100.00
43436;BME280;36399;51.444;-2.018;2023-12-04T11:28:16;98697.22;;;8.90;100.00
43436;BME280;36399;51.444;-2.018;2023-12-04T11:30:43;98694.63;;;8.87;100.00
43436;BME280;36399;51.444;-2.018;2023-12-04T11:33:09;98703.34;;;8.88;100.00
43436;BME280;36399;51.444;-2.018;2023-12-04T11:35:38;98695.53;;;8.86;100.00
43436;BME280;36399;51.444;-2.018;2023-12-04T11:38:07;98690.31;;;8.84;100.00
43436;BME280;36399;51.444;-2.018;2023-12-04T11:40:35;98692.06;;;8.79;100.00
43436;BME280;36399;51.444;-2.018;2023-12-04T11:43:24;98692.88;;;8.88;100.00
43436;BME280;36399;51.444;-2.018;2023-12-04T11:45:51;98691.22;;;8.74;100.00
43436;BME280;36399;51.444;-2.018;2023-12-04T11:48:22;98689.53;;;8.69;100.00
43436;BME280;36399;51.444;-2.018;2023-12-04T11:50:49;98684.28;;;8.70;100.00
43436;BME280;36399;51.444;-2.018;2023-12-04T11:53:16;98688.63;;;8.74;100.00
43436;BME280;36399;51.444;-2.018;2023-12-04T11:55:43;98685.19;;;8.68;100.00
43436;BME280;36399;51.444;-2.018;2023-12-04T11:58:09;98691.28;;;8.68;100.00
43436;BME280;36399;51.444;-2.018;2023-12-04T12:00:37;98680.91;;;8.59;100.00
43436;BME280;36399;51.444;-2.018;2023-12-04T12:03:07;98684.44;;;8.53;100.00
43436;BME280;36399;51.444;-2.018;2023-12-04T12:05:36;98680.97;;;8.51;100.00
43436;BME280;36399;51.444;-2.018;2023-12-04T12:08:05;98687.00;;;8.58;100.00
43436;BME280;36399;51.444;-2.018;2023-12-04T12:10:32;98679.19;;;8.55;100.00
43436;BME280;36399;51.444;-2.018;2023-12-04T12:12:59;98686.22;;;8.47;100.00
43436;BME280;36399;51.444;-2.018;2023-12-04T12:15:26;98688.81;;;8.50;100.00
43436;BME280;36399;51.444;-2.018;2023-12-04T12:17:51;98694.88;;;8.55;100.00
43436;BME280;36399;51.444;-2.018;2023-12-04T12:20:18;98689.56;;;8.64;100.00
43436;BME280;36399;51.444;-2.018;2023-12-04T12:22:47;98694.00;;;8.58;100.00
43436;BME280;36399;51.444;-2.018;2023-12-04T12:25:15;98693.13;;;8.57;100.00
43436;BME280;36399;51.444;-2.018;2023-12-04T12:27:41;98687.91;;;8.54;100.00
43436;BME280;36399;51.444;-2.018;2023-12-04T12:30:10;98690.56;;;8.51;100.00
43436;BME280;36399;51.444;-2.018;2023-12-04T12:32:36;98689.69;;;8.50;100.00
43436;BME280;36399;51.444;-2.018;2023-12-04T12:35:02;98680.19;;;8.40;100.00
43436;BME280;36399;51.444;-2.018;2023-12-04T12:37:33;98681.88;;;8.47;100.00
43436;BME280;36399;51.444;-2.018;2023-12-04T12:40:00;98677.47;;;8.51;100.00
43436;BME280;36399;51.444;-2.018;2023-12-04T12:42:29;98674.91;;;8.45;100.00
43436;BME280;36399;51.444;-2.018;2023-12-04T12:44:59;98675.69;;;8.56;100.00
43436;BME280;36399;51.444;-2.018;2023-12-04T12:47:35;98683.47;;;8.65;100.00
43436;BME280;36399;51.444;-2.018;2023-12-04T12:50:02;98680.03;;;8.60;100.00
43436;BME280;36399;51.444;-2.018;2023-12-04T12:52:29;98681.78;;;8.58;100.00
43436;BME280;36399;51.444;-2.018;2023-12-04T12:54:55;98684.34;;;8.63;100.00
43436;BME280;36399;51.444;-2.018;2023-12-04T12:57:21;98684.38;;;8.58;100.00
43436;BME280;36399;51.444;-2.018;2023-12-04T12:59:47;98680.06;;;8.52;100.00
43436;BME280;36399;51.444;-2.018;2023-12-04T13:02:13;98681.88;;;8.47;100.00
43436;BME280;36399;51.444;-2.018;2023-12-04T13:04:41;98680.97;;;8.50;100.00
43436;BME280;36399;51.444;-2.018;2023-12-04T13:07:07;98682.81;;;8.33;100.00
43436;BME280;36399;51.444;-2.018;2023-12-04T13:09:34;98672.34;;;8.33;100.00
43436;BME280;36399;51.444;-2.018;2023-12-04T13:12:06;98678.47;;;8.33;100.00
43436;BME280;36399;51.444;-2.018;2023-12-04T13:14:34;98670.66;;;8.22;100.00
43436;BME280;36399;51.444;-2.018;2023-12-04T13:17:03;98681.09;;;8.24;100.00
43436;BME280;36399;51.444;-2.018;2023-12-04T13:19:29;98675.09;;;8.11;100.00
43436;BME280;36399;51.444;-2.018;2023-12-04T13:21:57;98665.53;;;8.06;100.00
43436;BME280;36399;51.444;-2.018;2023-12-04T13:24:23;98674.25;;;8.06;100.00
43436;BME280;36399;51.444;-2.018;2023-12-04T13:26:49;98675.19;;;7.93;100.00
43436;BME280;36399;51.444;-2.018;2023-12-04T13:29:15;98672.63;;;7.87;100.00
43436;BME280;36399;51.444;-2.018;2023-12-04T13:31:44;98670.00;;;7.88;100.00
43436;BME280;36399;51.444;-2.018;2023-12-04T13:34:12;98677.88;;;7.81;100.00
43436;BME280;36399;51.444;-2.018;2023-12-04T13:36:38;98684.84;;;7.76;100.00
43436;BME280;36399;51.444;-2.018;2023-12-04T13:39:04;98690.94;;;7.81;100.00
43436;BME280;36399;51.444;-2.018;2023-12-04T13:41:31;98687.44;;;7.74;100.00
43436;BME280;36399;51.444;-2.018;2023-12-04T13:44:15;98694.41;;;7.77;100.00
43436;BME280;36399;51.444;-2.018;2023-12-04T13:46:41;98693.53;;;7.81;100.00
43436;BME280;36399;51.444;-2.018;2023-12-04T13:49:07;98693.53;;;7.78;100.00
43436;BME280;36399;51.444;-2.018;2023-12-04T13:51:33;98698.75;;;7.78;100.00
43436;BME280;36399;51.444;-2.018;2023-12-04T13:54:05;98695.28;;;7.74;100.00
43436;BME280;36399;51.444;-2.018;2023-12-04T13:56:45;98690.97;;;7.69;100.00
43436;BME280;36399;51.444;-2.018;2023-12-04T13:59:20;98700.53;;;7.67;100.00
43436;BME280;36399;51.444;-2.018;2023-12-04T14:01:50;98702.28;;;7.65;100.00
43436;BME280;36399;51.444;-2.018;2023-12-04T14:04:17;98700.56;;;7.64;100.00
43436;BME280;36399;51.444;-2.018;2023-12-04T14:06:44;98698.81;;;7.66;100.00
43436;BME280;36399;51.444;-2.018;2023-12-04T14:09:11;98704.03;;;7.66;100.00
43436;BME280;36399;51.444;-2.018;2023-12-04T14:11:43;98712.75;;;7.62;100.00
43436;BME280;36399;51.444;-2.018;2023-12-04T14:14:11;98711.00;;;7.67;100.00
43436;BME280;36399;51.444;-2.018;2023-12-04T14:16:38;98713.59;;;7.67;100.00
43436;BME280;36399;51.444;-2.018;2023-12-04T14:19:05;98718.88;;;7.54;100.00
43436;BME280;36399;51.444;-2.018;2023-12-04T14:21:31;98712.78;;;7.52;100.00
43436;BME280;36399;51.444;-2.018;2023-12-04T14:23:57;98718.88;;;7.51;100.00
43436;BME280;36399;51.444;-2.018;2023-12-04T14:26:23;98722.38;;;7.46;100.00
43436;BME280;36399;51.444;-2.018;2023-12-04T14:28:49;98722.38;;;7.50;100.00
43436;BME280;36399;51.444;-2.018;2023-12-04T14:31:15;98726.72;;;7.51;100.00
43436;BME280;36399;51.444;-2.018;2023-12-04T14:33:41;98727.56;;;7.55;100.00
43436;BME280;36399;51.444;-2.018;2023-12-04T14:36:07;98718.00;;;7.52;100.00
43436;BME280;36399;51.444;-2.018;2023-12-04T14:38:33;98721.50;;;7.51;100.00
43436;BME280;36399;51.444;-2.018;2023-12-04T14:41:00;98720.66;;;7.40;100.00
43436;BME280;36399;51.444;-2.018;2023-12-04T14:43:29;98723.25;;;7.43;100.00
43436;BME280;36399;51.444;-2.018;2023-12-04T14:45:55;98726.75;;;7.36;100.00
43436;BME280;36399;51.444;-2.018;2023-12-04T14:48:21;98729.38;;;7.30;100.00
43436;BME280;36399;51.444;-2.018;2023-12-04T14:50:47;98726.78;;;7.30;100.00
43436;BME280;36399;51.444;-2.018;2023-12-04T14:53:14;98728.53;;;7.30;100.00
43436;BME280;36399;51.444;-2.018;2023-12-04T14:55:55;98731.97;;;7.25;100.00
43436;BME280;36399;51.444;-2.018;2023-12-04T14:58:43;98745.03;;;7.30;100.00
43436;BME280;36399;51.444;-2.018;2023-12-04T15:01:26;98745.03;;;7.22;100.00
43436;BME280;36399;51.444;-2.018;2023-12-04T15:04:08;98746.78;;;7.17;100.00
43436;BME280;36399;51.444;-2.018;2023-12-04T15:07:00;98747.66;;;7.18;100.00
43436;BME280;36399;51.444;-2.018;2023-12-04T15:09:49;98753.75;;;7.15;100.00
43436;BME280;36399;51.444;-2.018;2023-12-04T15:12:53;98757.22;;;7.16;100.00
43436;BME280;36399;51.444;-2.018;2023-12-04T15:29:53;98787.66;;;6.89;100.00
43436;BME280;36399;51.444;-2.018;2023-12-04T15:40:07;98802.44;;;6.78;100.00
